Time;durP1;ratioP1;P1;durP2;ratioP2;P2;SDS_P1;SDS_P2;PMS_P1;PMS_P2;Temp;Humidity;BMP_temperature;BMP_pressure;BME280_temperature;BME280_humidity;BME280_pressure;Samples;Min_cycle;Max_cycle;Signal;HPM_P1;HPM_P2
2021/01/23 00:00:39;;;;;;;4.45;3.10;;;;;;;5.22;75.56;94396.59;6264857;23;20035;-80
2021/01/23 00:03:08;;;;;;;2.25;1.98;;;;;;;5.16;75.58;94400.00;6265167;23;20020;-79
2021/01/23 00:05:36;;;;;;;2.53;2.33;;;;;;;5.10;75.13;94396.44;6256791;23;20016;-79
2021/01/23 00:08:10;;;;;;;2.10;1.98;;;;;;;5.08;75.98;94410.56;6255354;23;20020;-79
2021/01/23 00:10:38;;;;;;;2.25;2.05;;;;;;;5.08;76.24;94428.63;6261715;23;20016;-79
2021/01/23 00:13:10;;;;;;;1.95;1.85;;;;;;;5.04;75.57;94425.66;6255315;23;20016;-79
2021/01/23 00:15:38;;;;;;;1.58;1.48;;;;;;;4.99;75.25;94427.25;6247971;23;20023;-79
2021/01/23 00:18:06;;;;;;;1.42;1.30;;;;;;;4.92;75.25;94427.25;6246275;23;20074;-79
2021/01/23 00:20:34;;;;;;;1.92;1.60;;;;;;;4.87;75.13;94438.16;6245174;23;20026;-80
2021/01/23 00:23:01;;;;;;;1.17;1.17;;;;;;;4.81;74.92;94436.41;6245727;23;20197;-79
2021/01/23 00:25:29;;;;;;;1.73;1.48;;;;;;;4.74;75.18;94445.91;6244450;23;20130;-78
2021/01/23 00:27:57;;;;;;;2.10;1.88;;;;;;;4.72;75.17;94445.31;6245200;23;20051;-79
2021/01/23 00:30:24;;;;;;;2.40;1.88;;;;;;;4.68;75.21;94446.72;6244605;23;20044;-78
2021/01/23 00:32:51;;;;;;;1.30;1.20;;;;;;;4.62;75.02;94448.31;6245140;23;20028;-79
2021/01/23 00:35:18;;;;;;;1.70;1.48;;;;;;;4.58;74.99;94451.50;6245442;23;20052;-79
2021/01/23 00:37:47;;;;;;;1.75;1.60;;;;;;;4.48;74.34;94450.09;6244890;23;20115;-79
2021/01/23 00:40:14;;;;;;;2.35;1.63;;;;;;;4.39;74.50;94451.25;6245427;23;20099;-78
2021/01/23 00:42:42;;;;;;;2.13;1.75;;;;;;;4.28;74.36;94460.34;6245355;23;20391;-78
2021/01/23 00:45:09;;;;;;;1.65;1.23;;;;;;;4.21;74.20;94466.50;6244549;23;20016;-78
2021/01/23 00:47:36;;;;;;;1.30;1.20;;;;;;;4.12;74.00;94471.84;6244974;23;20024;-78
2021/01/23 00:50:03;;;;;;;1.42;1.33;;;;;;;4.01;74.17;94472.41;6244104;23;20020;-79
2021/01/23 00:52:30;;;;;;;1.52;1.40;;;;;;;3.91;74.92;94477.94;6245232;23;20055;-79
2021/01/23 00:54:57;;;;;;;1.38;1.27;;;;;;;3.85;74.79;94483.84;6244941;23;20452;-79
2021/01/23 00:57:23;;;;;;;1.42;1.33;;;;;;;3.80;74.36;94482.81;6244963;23;20083;-78
2021/01/23 00:59:51;;;;;;;1.48;1.38;;;;;;;3.74;74.39;94501.63;6244628;23;20023;-79
2021/01/23 01:02:17;;;;;;;1.65;1.27;;;;;;;3.68;75.25;94498.84;6244913;23;20024;-78
2021/01/23 01:04:44;;;;;;;2.05;1.45;;;;;;;3.63;74.78;94497.81;6244603;23;20038;-78
2021/01/23 01:07:10;;;;;;;1.38;1.27;;;;;;;3.55;74.71;94509.06;6244550;23;20016;-78
2021/01/23 01:09:37;;;;;;;1.00;0.90;;;;;;;3.46;74.74;94511.00;6244068;23;20012;-79
2021/01/23 01:12:04;;;;;;;1.20;1.00;;;;;;;3.36;75.01;94513.09;6244511;23;20023;-78
2021/01/23 01:14:31;;;;;;;1.27;0.75;;;;;;;3.32;75.28;94511.09;6244552;23;20389;-78
2021/01/23 01:16:58;;;;;;;0.85;0.75;;;;;;;3.27;75.75;94515.03;6245055;23;20023;-78
2021/01/23 01:19:25;;;;;;;1.45;1.25;;;;;;;3.25;76.19;94524.72;6246024;23;20098;-79
2021/01/23 01:21:52;;;;;;;0.65;0.65;;;;;;;3.24;76.03;94530.09;6245337;23;20026;-78
2021/01/23 01:24:18;;;;;;;1.92;1.00;;;;;;;3.21;75.78;94531.22;6244983;23;20448;-79
2021/01/23 01:26:45;;;;;;;0.85;0.52;;;;;;;3.19;75.92;94535.81;6244459;23;20013;-78
2021/01/23 01:29:11;;;;;;;0.73;0.73;;;;;;;3.17;76.07;94542.91;6244421;23;20026;-78
2021/01/23 01:31:38;;;;;;;0.60;0.50;;;;;;;3.12;75.45;94545.25;6245171;23;20020;-78
2021/01/23 01:34:06;;;;;;;0.50;0.50;;;;;;;3.06;75.77;94558.84;6244739;23;20095;-78
2021/01/23 01:36:32;;;;;;;0.68;0.68;;;;;;;3.00;75.91;94547.53;6245185;23;20368;-78
2021/01/23 01:38:59;;;;;;;0.43;0.43;;;;;;;2.97;75.93;94553.03;6246579;23;20028;-78
2021/01/23 01:41:25;;;;;;;1.13;0.70;;;;;;;2.93;76.17;94554.41;6246564;23;20020;-78
2021/01/23 01:43:52;;;;;;;0.93;0.30;;;;;;;2.87;75.64;94555.94;6246465;23;20054;-79
2021/01/23 01:46:19;;;;;;;1.25;0.65;;;;;;;2.83;76.15;94554.69;6246642;23;20027;-79
2021/01/23 01:48:48;;;;;;;0.30;0.28;;;;;;;2.79;76.33;94576.63;6246363;23;20020;-78
2021/01/23 01:51:16;;;;;;;5.38;0.45;;;;;;;2.78;76.92;94584.56;6246327;23;20413;-78
2021/01/23 01:53:44;;;;;;;0.63;0.20;;;;;;;2.72;76.46;94586.09;6246699;23;20028;-78
2021/01/23 01:56:10;;;;;;;0.17;0.17;;;;;;;2.69;76.86;94586.47;6246636;23;20380;-79
2021/01/23 01:58:37;;;;;;;1.17;0.20;;;;;;;2.66;76.93;94591.97;6246251;23;20352;-78
2021/01/23 02:01:05;;;;;;;0.10;0.10;;;;;;;2.67;76.93;94606.44;6246206;23;20031;-78
2021/01/23 02:04:03;;;;;;;0.38;0.10;;;;;;;2.67;77.53;94619.31;6246361;23;20106;-79
2021/01/23 02:06:48;;;;;;;0.35;0.10;;;;;;;2.65;77.30;94622.06;6246496;23;20024;-78
2021/01/23 02:09:28;;;;;;;0.75;0.10;;;;;;;2.61;76.69;94632.91;6245811;23;20075;-79
2021/01/23 02:12:05;;;;;;;0.40;0.30;;;;;;;2.57;77.62;94629.09;6246513;23;20021;-79
2021/01/23 02:14:41;;;;;;;0.40;0.10;;;;;;;2.55;77.58;94631.03;6246058;23;20365;-78
2021/01/23 02:17:12;;;;;;;0.28;0.28;;;;;;;2.50;77.50;94629.00;6246399;23;20348;-78
2021/01/23 02:20:04;;;;;;;0.15;0.15;;;;;;;2.46;78.46;94625.97;6246024;23;20016;-78
2021/01/23 02:22:46;;;;;;;0.20;0.20;;;;;;;2.42;77.85;94635.03;6246302;23;20020;-78
2021/01/23 02:25:15;;;;;;;0.82;0.15;;;;;;;2.38;78.01;94646.66;6272916;22;20068;-79
2021/01/23 02:27:50;;;;;;;1.45;0.20;;;;;;;2.35;78.06;94648.81;6273290;22;20027;-79
2021/01/23 02:35:38;;;;;;;0.55;0.30;;;;;;;2.23;78.68;94658.72;6202069;23;20030;-79
2021/01/23 02:38:10;;;;;;;0.43;0.13;;;;;;;2.20;78.87;94661.69;6248568;23;20515;-79
2021/01/23 02:40:37;;;;;;;0.43;0.30;;;;;;;2.18;78.65;94672.13;6248467;23;20044;-79
2021/01/23 02:43:07;;;;;;;0.93;0.25;;;;;;;2.15;78.37;94676.84;6248425;23;20356;-81
2021/01/23 02:45:34;;;;;;;1.45;0.47;;;;;;;2.14;78.71;94680.38;6247942;23;20020;-81
2021/01/23 02:48:01;;;;;;;0.45;0.10;;;;;;;2.13;79.14;94683.94;6247191;23;20359;-81
2021/01/23 03:09:30;;;;;;;0.50;0.20;;;;;;;1.95;79.14;94718.50;6180312;23;20019;-79
2021/01/23 03:11:57;;;;;;;0.20;0.20;;;;;;;1.94;79.46;94716.91;6247875;23;20070;-79
2021/01/23 03:14:23;;;;;;;0.50;0.50;;;;;;;1.94;79.96;94732.31;6248606;23;20326;-81
2021/01/23 03:16:51;;;;;;;0.45;0.30;;;;;;;1.94;79.91;94732.31;6247864;23;20027;-81
2021/01/23 03:19:19;;;;;;;0.55;0.30;;;;;;;1.93;79.87;94738.44;6247819;23;20074;-82
2021/01/23 03:21:47;;;;;;;0.30;0.30;;;;;;;1.94;80.28;94746.94;6248083;23;20441;-81
2021/01/23 03:24:18;;;;;;;0.30;0.30;;;;;;;1.92;80.09;94749.69;6248129;23;20103;-81
2021/01/23 03:26:46;;;;;;;1.08;0.47;;;;;;;1.90;80.22;94751.63;6248928;23;20377;-81
2021/01/23 04:05:51;;;;;;;0.30;0.30;;;;;;;1.67;81.26;94818.50;6186182;23;20454;-80
2021/01/23 04:08:21;;;;;;;0.28;0.20;;;;;;;1.69;81.12;94828.63;6187066;23;20099;-79
2021/01/23 04:10:48;;;;;;;0.93;0.40;;;;;;;1.70;80.99;94838.69;6211015;23;20330;-79
2021/01/23 04:13:15;;;;;;;1.00;0.60;;;;;;;1.68;81.28;94835.50;6217247;23;20028;-79
2021/01/23 04:15:42;;;;;;;0.65;0.55;;;;;;;1.70;81.56;94822.50;6217435;23;20111;-79
2021/01/23 04:18:09;;;;;;;0.75;0.65;;;;;;;1.72;81.06;94835.97;6217478;23;20059;-79
2021/01/23 04:20:39;;;;;;;1.08;0.98;;;;;;;1.73;81.10;94840.13;6217043;23;20020;-79
2021/01/23 04:23:06;;;;;;;0.90;0.90;;;;;;;1.73;80.92;94842.69;6217280;23;20049;-79
2021/01/23 04:25:33;;;;;;;1.00;0.57;;;;;;;1.74;81.27;94845.09;6217509;23;20024;-79
2021/01/23 05:47:28;;;;;;;3.22;2.92;;;;;;;2.34;80.24;94959.34;6200427;23;20047;-81
2021/01/23 06:03:50;;;;;;;3.75;3.40;;;;;;;2.36;78.80;94962.56;6098535;23;20027;-80
2021/01/23 06:06:17;;;;;;;3.85;3.00;;;;;;;2.38;78.66;94964.94;6101268;23;20018;-80
2021/01/23 06:08:46;;;;;;;3.92;3.50;;;;;;;2.42;79.30;94971.34;6099908;23;20022;-80
2021/01/23 06:37:23;;;;;;;4.03;3.63;;;;;;;2.57;78.49;94989.44;6118072;23;604872;-82
2021/01/23 06:53:49;;;;;;;5.22;4.72;;;;;;;2.55;78.24;95014.53;6160023;23;20075;-82
2021/01/23 06:56:19;;;;;;;5.43;4.72;;;;;;;2.53;78.18;95019.06;6160095;23;20056;-82
2021/01/23 06:58:53;;;;;;;7.47;5.20;;;;;;;2.54;78.36;95015.53;6157619;23;20056;-82
2021/01/23 07:02:23;;;;;;;6.40;5.50;;;;;;;2.57;78.96;95021.13;6117559;23;20030;-81
2021/01/23 07:10:04;;;;;;;7.07;5.30;;;;;;;2.62;80.46;95016.28;6129994;23;20466;-81
2021/01/23 07:26:46;;;;;;;4.90;4.40;;;;;;;2.76;77.92;95014.72;6186840;23;20096;-80
2021/01/23 07:29:13;;;;;;;5.43;4.82;;;;;;;2.77;78.38;95016.31;6187703;23;20052;-80
2021/01/23 07:31:40;;;;;;;4.32;3.75;;;;;;;2.79;78.12;95013.56;6191417;23;20100;-81
2021/01/23 07:38:53;;;;;;;5.53;4.03;;;;;;;2.83;78.62;95025.13;6138357;23;20036;-82
2021/01/23 07:51:34;;;;;;;3.38;2.90;;;;;;;2.88;77.71;95023.63;6107841;23;20022;-81
2021/01/23 07:54:18;;;;;;;3.30;3.00;;;;;;;2.89;78.07;95017.53;6129954;23;20017;-81
2021/01/23 07:56:54;;;;;;;3.15;2.85;;;;;;;2.91;77.86;95017.34;6126985;23;20033;-81
2021/01/23 07:59:22;;;;;;;3.92;2.92;;;;;;;2.93;77.94;95018.00;6129460;23;20091;-82
2021/01/23 08:01:49;;;;;;;4.07;3.33;;;;;;;2.97;77.62;95021.78;6128566;23;20050;-81
2021/01/23 08:04:30;;;;;;;3.55;2.92;;;;;;;3.00;77.75;95018.09;6128826;23;20084;-81
2021/01/23 08:07:27;;;;;;;3.35;2.95;;;;;;;3.01;78.10;95023.06;6128854;23;20026;-81
2021/01/23 08:15:42;;;;;;;5.35;2.97;;;;;;;3.02;77.47;95036.75;6175873;23;20024;-81
2021/01/23 08:18:16;;;;;;;3.55;2.88;;;;;;;3.04;77.58;95029.63;6246768;23;20020;-81
2021/01/23 08:20:46;;;;;;;3.65;2.85;;;;;;;3.08;77.41;95028.31;6247064;23;20055;-82
2021/01/23 08:23:14;;;;;;;4.28;2.88;;;;;;;3.10;77.40;95026.38;6247609;23;20068;-82
2021/01/23 08:25:48;;;;;;;4.50;3.13;;;;;;;3.13;76.88;95025.22;6251116;23;20020;-81
2021/01/23 08:28:23;;;;;;;3.53;2.88;;;;;;;3.13;76.77;95020.88;6250828;23;20022;-81
2021/01/23 08:30:50;;;;;;;3.45;3.08;;;;;;;3.16;76.98;95020.53;6225750;22;20108;-78
2021/01/23 08:33:16;;;;;;;25.20;15.48;;;;;;;3.20;76.96;95011.47;6214961;23;20092;-78
2021/01/23 08:35:43;;;;;;;11.13;6.82;;;;;;;3.22;76.92;95011.31;6216126;23;20350;-78
2021/01/23 08:38:10;;;;;;;6.53;4.60;;;;;;;3.27;76.92;95016.72;6215320;23;20488;-78
2021/01/23 08:40:39;;;;;;;4.35;3.50;;;;;;;3.28;76.78;95019.13;6214208;23;20539;-78
2021/01/23 08:43:05;;;;;;;6.22;3.13;;;;;;;3.29;76.20;95019.94;6215175;23;20020;-79
2021/01/23 08:45:32;;;;;;;4.78;3.92;;;;;;;3.33;76.84;95022.97;6214924;23;20572;-80
2021/01/23 08:47:59;;;;;;;4.10;3.50;;;;;;;3.37;77.03;95021.63;6215266;23;20461;-77
2021/01/23 08:50:25;;;;;;;6.25;4.55;;;;;;;3.41;76.76;95012.56;6213850;23;20024;-77
2021/01/23 08:52:52;;;;;;;5.18;4.32;;;;;;;3.44;77.32;95012.22;6214764;23;20365;-76
2021/01/23 08:55:18;;;;;;;5.75;3.75;;;;;;;3.48;77.20;95008.31;6214724;23;20020;-76
2021/01/23 08:57:46;;;;;;;4.88;3.83;;;;;;;3.47;75.39;95010.06;6215262;23;20021;-77
2021/01/23 09:00:15;;;;;;;4.97;4.22;;;;;;;3.45;74.89;95008.66;6214252;23;20023;-78
2021/01/23 09:02:41;;;;;;;4.60;4.05;;;;;;;3.44;74.95;95001.91;6214660;23;20021;-76
2021/01/23 09:05:10;;;;;;;4.10;3.70;;;;;;;3.43;74.90;95000.28;6214528;23;20338;-76
2021/01/23 09:07:39;;;;;;;4.88;4.05;;;;;;;3.43;74.68;95006.28;6214625;23;20028;-76
2021/01/23 09:10:08;;;;;;;7.65;4.68;;;;;;;3.46;75.26;94997.38;6214131;23;20028;-76
2021/01/23 09:12:34;;;;;;;5.55;3.90;;;;;;;3.49;75.15;94989.28;6214757;23;20021;-77
2021/01/23 09:15:02;;;;;;;6.05;3.83;;;;;;;3.53;74.64;94990.53;6215196;23;20020;-77
2021/01/23 09:17:28;;;;;;;6.90;4.75;;;;;;;3.56;74.61;94985.00;6213945;23;20025;-77
2021/01/23 09:19:55;;;;;;;6.97;5.05;;;;;;;3.59;74.42;94992.41;6214367;23;20327;-77
2021/01/23 09:22:21;;;;;;;6.10;4.82;;;;;;;3.61;74.13;94985.28;6214535;23;20021;-77
2021/01/23 09:24:48;;;;;;;4.22;3.83;;;;;;;3.63;73.88;94985.91;6214636;23;20025;-78
2021/01/23 09:27:14;;;;;;;4.85;3.90;;;;;;;3.68;74.75;94991.34;6214688;23;20027;-77
2021/01/23 09:29:41;;;;;;;9.77;5.30;;;;;;;3.74;74.46;94989.00;6217161;23;20020;-78
2021/01/23 09:32:08;;;;;;;12.00;6.47;;;;;;;3.76;73.72;94987.06;6244864;23;20027;-76
2021/01/23 09:34:35;;;;;;;9.73;5.90;;;;;;;3.78;74.35;94980.72;6245283;23;20416;-77
2021/01/23 09:37:04;;;;;;;7.43;5.60;;;;;;;3.84;74.59;94985.19;6245049;23;20159;-78
2021/01/23 09:39:31;;;;;;;8.75;5.43;;;;;;;3.91;74.66;94982.69;6244902;23;20351;-78
2021/01/23 09:41:58;;;;;;;6.75;4.72;;;;;;;3.97;73.88;94981.19;6244665;23;20028;-77
2021/01/23 09:44:25;;;;;;;7.65;4.97;;;;;;;4.03;73.35;94978.66;6244932;23;20016;-77
2021/01/23 09:46:51;;;;;;;19.52;6.90;;;;;;;4.06;72.75;94980.88;6244854;23;20024;-77
2021/01/23 09:49:19;;;;;;;9.00;5.50;;;;;;;4.11;73.31;94983.75;6244504;23;20374;-77
2021/01/23 09:51:46;;;;;;;7.75;4.50;;;;;;;4.20;73.20;94981.84;6244749;23;20020;-78
2021/01/23 09:54:12;;;;;;;5.75;4.45;;;;;;;4.29;72.19;94980.75;6244692;23;20020;-77
2021/01/23 09:56:56;;;;;;;8.68;4.78;;;;;;;4.40;72.17;94981.25;6244743;23;20020;-77
2021/01/23 09:59:23;;;;;;;8.63;5.53;;;;;;;4.45;71.28;94974.56;6246186;23;20338;-77
2021/01/23 10:01:49;;;;;;;9.25;5.57;;;;;;;4.52;72.64;94970.25;6247012;23;20357;-77
2021/01/23 10:04:16;;;;;;;8.27;4.93;;;;;;;4.58;72.22;94966.13;6249826;23;20050;-78
2021/01/23 10:06:43;;;;;;;7.32;4.53;;;;;;;4.65;72.11;94968.78;6253131;23;20461;-78
2021/01/23 10:09:09;;;;;;;12.98;8.25;;;;;;;4.74;71.97;94952.16;6251678;23;20020;-79
2021/01/23 10:11:36;;;;;;;23.90;14.85;;;;;;;4.80;71.68;94954.00;6248837;23;20020;-78
2021/01/23 10:14:03;;;;;;;8.90;5.57;;;;;;;4.86;70.75;94945.53;6248912;23;20031;-80
2021/01/23 10:16:29;;;;;;;6.13;4.43;;;;;;;4.91;70.18;94943.16;6252117;23;20031;-75
2021/01/23 10:18:56;;;;;;;6.90;4.50;;;;;;;4.99;70.23;94941.47;6253141;23;20020;-79
2021/01/23 10:21:22;;;;;;;8.43;4.68;;;;;;;5.07;69.81;94934.38;6247843;23;20464;-80
2021/01/23 10:23:50;;;;;;;6.63;5.05;;;;;;;5.16;69.47;94935.03;6247681;23;20464;-79
2021/01/23 10:26:16;;;;;;;9.27;4.88;;;;;;;5.26;69.41;94926.91;6247716;23;20472;-80
2021/01/23 10:28:43;;;;;;;5.70;4.35;;;;;;;5.34;69.31;94930.16;6246747;23;20024;-80
2021/01/23 10:31:10;;;;;;;6.72;4.75;;;;;;;5.41;69.78;94917.25;6245699;23;20575;-78
2021/01/23 10:33:36;;;;;;;10.02;5.03;;;;;;;5.50;69.21;94908.34;6249770;23;20024;-80
2021/01/23 10:36:03;;;;;;;5.13;4.63;;;;;;;5.62;68.98;94913.78;6249746;23;20024;-80
2021/01/23 10:38:30;;;;;;;9.27;6.07;;;;;;;5.71;68.74;94912.63;6247734;23;20020;-80
2021/01/23 10:40:57;;;;;;;11.80;5.10;;;;;;;5.74;67.84;94901.88;6246080;23;20016;-80
2021/01/23 10:43:24;;;;;;;6.10;4.40;;;;;;;5.74;67.89;94901.88;6246804;23;20031;-80
2021/01/23 10:45:50;;;;;;;5.93;4.38;;;;;;;5.74;67.14;94898.50;6248223;23;20020;-80
2021/01/23 10:48:17;;;;;;;7.55;5.07;;;;;;;5.75;67.42;94890.56;6247286;23;20098;-79
2021/01/23 10:50:44;;;;;;;7.45;5.55;;;;;;;5.77;66.78;94883.41;6247854;23;20098;-80
2021/01/23 10:53:10;;;;;;;15.45;6.75;;;;;;;5.83;66.98;94873.28;6247594;23;20022;-79
2021/01/23 10:55:37;;;;;;;25.70;13.85;;;;;;;5.90;66.82;94879.25;6247358;23;20107;-79
2021/01/23 10:58:04;;;;;;;10.73;6.70;;;;;;;6.01;65.86;94876.13;6246680;23;20020;-79
2021/01/23 11:00:31;;;;;;;6.40;5.25;;;;;;;6.07;66.09;94870.16;6246165;23;20043;-79
2021/01/23 11:02:58;;;;;;;8.80;6.60;;;;;;;6.11;66.24;94866.19;6245650;23;20470;-79
2021/01/23 11:05:24;;;;;;;10.88;6.78;;;;;;;6.14;65.82;94860.66;6246278;23;20070;-79
2021/01/23 11:07:55;;;;;;;10.15;6.63;;;;;;;6.16;66.08;94858.63;6245454;23;20020;-79
2021/01/23 11:10:21;;;;;;;11.60;7.43;;;;;;;6.21;66.22;94862.44;6245539;23;20058;-80
2021/01/23 11:12:48;;;;;;;11.90;8.15;;;;;;;6.26;66.06;94860.06;6246427;23;20361;-78
2021/01/23 11:15:16;;;;;;;8.45;6.78;;;;;;;6.31;66.33;94861.03;6246064;23;20024;-79
2021/01/23 11:17:43;;;;;;;11.00;6.72;;;;;;;6.36;66.01;94858.69;6246258;23;20356;-79
2021/01/23 11:20:11;;;;;;;11.13;7.70;;;;;;;6.37;66.30;94849.13;6245600;23;20527;-79
2021/01/23 11:22:38;;;;;;;11.85;6.32;;;;;;;6.36;65.92;94847.50;6246426;23;20020;-79
2021/01/23 11:25:06;;;;;;;6.70;5.80;;;;;;;6.25;66.06;94846.28;6246319;23;20397;-80
2021/01/23 11:27:33;;;;;;;6.22;5.20;;;;;;;6.17;66.05;94844.72;6246103;23;20360;-80
2021/01/23 11:30:00;;;;;;;5.40;4.90;;;;;;;6.15;65.92;94838.13;6245198;23;20027;-80
2021/01/23 11:32:28;;;;;;;7.13;5.78;;;;;;;6.12;65.88;94841.91;6246151;23;20030;-80
2021/01/23 11:34:55;;;;;;;5.65;4.50;;;;;;;6.09;66.30;94849.28;6246070;23;20044;-79
2021/01/23 11:37:21;;;;;;;8.10;5.50;;;;;;;6.03;65.93;94837.91;6246542;23;20027;-80
2021/01/23 11:39:48;;;;;;;17.75;10.73;;;;;;;6.03;66.09;94843.06;6245818;23;20017;-80
2021/01/23 11:42:14;;;;;;;7.03;5.55;;;;;;;6.04;65.74;94838.72;6245991;23;20020;-79
2021/01/23 11:44:42;;;;;;;7.22;5.60;;;;;;;6.00;65.98;94827.94;6245512;23;20534;-79
2021/01/23 11:47:08;;;;;;;7.43;5.10;;;;;;;5.96;66.14;94818.97;6245963;23;20027;-79
2021/01/23 11:49:36;;;;;;;7.50;5.07;;;;;;;5.95;66.34;94820.00;6245539;23;20367;-77
2021/01/23 11:52:03;;;;;;;6.90;4.30;;;;;;;5.92;66.08;94817.75;6245731;23;20020;-79
2021/01/23 11:54:30;;;;;;;4.40;4.00;;;;;;;5.90;65.82;94811.97;6247329;23;20099;-79
2021/01/23 11:56:56;;;;;;;4.30;3.90;;;;;;;5.88;66.17;94808.78;6245661;23;20356;-79
2021/01/23 11:59:22;;;;;;;4.50;4.07;;;;;;;5.93;66.33;94803.81;6244567;23;20039;-78
2021/01/23 12:01:49;;;;;;;7.53;4.45;;;;;;;5.97;66.34;94797.31;6245579;23;20100;-77
2021/01/23 12:04:17;;;;;;;5.60;4.13;;;;;;;5.98;65.42;94791.13;6244901;23;20020;-79
2021/01/23 12:06:44;;;;;;;5.80;4.22;;;;;;;5.92;65.34;94784.91;6245496;23;20020;-77
2021/01/23 12:09:11;;;;;;;7.40;4.43;;;;;;;5.95;66.69;94781.16;6244707;23;20464;-78
2021/01/23 12:11:37;;;;;;;5.78;4.35;;;;;;;6.00;66.36;94772.81;6245544;23;20046;-79
2021/01/23 12:14:04;;;;;;;5.25;4.18;;;;;;;6.01;65.77;94767.41;6245090;23;20030;-78
2021/01/23 12:16:30;;;;;;;4.57;3.97;;;;;;;5.99;65.48;94764.22;6245247;23;20026;-78
2021/01/23 12:27:13;;;;;;;5.50;3.72;;;;;;;5.97;66.17;94745.53;6160379;23;20058;-77
2021/01/23 12:29:39;;;;;;;7.07;4.60;;;;;;;5.93;65.20;94733.97;6244625;23;20030;-79
2021/01/23 12:32:08;;;;;;;8.93;4.95;;;;;;;5.90;65.56;94737.75;6244719;23;20036;-78
2021/01/23 12:34:35;;;;;;;6.68;5.40;;;;;;;5.88;65.89;94741.50;6245148;23;20032;-78
2021/01/23 12:37:01;;;;;;;4.80;4.03;;;;;;;5.83;65.43;94723.97;6244780;23;20020;-78
2021/01/23 12:39:28;;;;;;;6.10;4.68;;;;;;;5.75;65.57;94726.75;6244545;23;20020;-79
2021/01/23 12:41:54;;;;;;;5.90;5.35;;;;;;;5.70;66.10;94724.75;6244895;23;20016;-80
2021/01/23 12:44:23;;;;;;;5.93;4.22;;;;;;;5.68;65.64;94726.75;6244832;23;20023;-78
2021/01/23 12:46:51;;;;;;;5.38;4.60;;;;;;;5.64;66.22;94732.50;6244754;23;20364;-78
2021/01/23 12:49:18;;;;;;;10.02;4.88;;;;;;;5.60;65.72;94732.13;6244392;23;20094;-78
2021/01/23 12:51:45;;;;;;;6.28;4.60;;;;;;;5.53;66.04;94723.53;6244651;23;20020;-78
2021/01/23 12:54:11;;;;;;;10.48;7.72;;;;;;;5.51;66.82;94741.03;6244502;23;20043;-78
2021/01/23 12:56:38;;;;;;;8.38;6.03;;;;;;;5.51;66.67;94734.09;6244631;23;20016;-77
2021/01/23 12:59:06;;;;;;;5.22;4.55;;;;;;;5.53;66.42;94737.28;6244541;23;20020;-78
2021/01/23 13:01:33;;;;;;;5.80;4.32;;;;;;;5.54;66.59;94732.91;6246309;23;20024;-80
2021/01/23 13:04:00;;;;;;;7.68;4.43;;;;;;;5.52;66.62;94732.31;6245702;23;20488;-78
2021/01/23 13:06:26;;;;;;;6.85;4.85;;;;;;;5.48;66.74;94731.88;6246493;23;20353;-79
2021/01/23 13:08:53;;;;;;;11.13;6.65;;;;;;;5.48;66.19;94731.88;6244682;23;20036;-79
2021/01/23 13:11:19;;;;;;;8.15;5.93;;;;;;;5.48;67.32;94731.09;6244471;23;20020;-80
2021/01/23 13:13:46;;;;;;;8.68;6.15;;;;;;;5.45;66.47;94728.91;6244925;23;20364;-79
2021/01/23 13:16:17;;;;;;;5.47;4.90;;;;;;;5.36;66.72;94736.06;6244822;23;20043;-78
2021/01/23 13:18:44;;;;;;;6.32;4.75;;;;;;;5.33;67.11;94724.28;6245048;23;20026;-79
2021/01/23 13:21:11;;;;;;;6.15;4.88;;;;;;;5.31;67.01;94721.13;6244437;23;20020;-79
2021/01/23 13:23:38;;;;;;;7.05;5.13;;;;;;;5.29;66.68;94722.28;6244810;23;20024;-80
2021/01/23 13:26:05;;;;;;;5.55;5.00;;;;;;;5.27;67.11;94725.09;6244588;23;20473;-79
2021/01/23 13:28:32;;;;;;;6.30;4.63;;;;;;;5.24;67.15;94717.72;6244431;23;20042;-80
2021/01/23 13:30:58;;;;;;;4.72;4.22;;;;;;;5.20;66.97;94721.66;6244106;23;20020;-80
2021/01/23 13:33:25;;;;;;;5.95;4.63;;;;;;;5.19;66.81;94717.50;6249101;23;20024;-81
2021/01/23 13:35:52;;;;;;;5.53;4.70;;;;;;;5.19;67.82;94712.34;6247868;23;20695;-79
2021/01/23 13:38:19;;;;;;;5.28;4.78;;;;;;;5.19;67.32;94709.75;6247947;23;20469;-82
2021/01/23 13:43:21;;;;;;;6.57;4.82;;;;;;;5.13;67.78;94702.75;6177067;23;20027;-80
2021/01/23 13:45:47;;;;;;;7.25;4.82;;;;;;;5.08;67.53;94710.31;6246576;23;20020;-79
2021/01/23 13:48:14;;;;;;;6.25;5.65;;;;;;;5.03;67.45;94715.25;6246456;23;20361;-76
2021/01/23 13:50:41;;;;;;;11.95;8.50;;;;;;;4.99;68.10;94712.28;6246424;23;20051;-79
2021/01/23 13:53:08;;;;;;;9.02;7.28;;;;;;;5.04;67.97;94716.84;6249603;23;20464;-79
2021/01/23 13:55:34;;;;;;;8.75;6.80;;;;;;;5.04;67.53;94719.44;6270287;23;20044;-77
2021/01/23 13:58:01;;;;;;;6.50;5.80;;;;;;;5.03;67.77;94718.66;6271776;23;20064;-79
2021/01/23 14:00:28;;;;;;;6.53;5.93;;;;;;;4.97;67.86;94716.03;6257532;23;20020;-79
2021/01/23 14:02:55;;;;;;;6.30;5.65;;;;;;;4.92;67.59;94717.41;6248656;23;20043;-78
2021/01/23 14:05:21;;;;;;;7.30;6.15;;;;;;;4.90;67.38;94716.81;6247847;23;20024;-77
2021/01/23 14:07:48;;;;;;;8.43;7.10;;;;;;;4.83;67.38;94718.56;6248030;23;20024;-79
2021/01/23 14:10:24;;;;;;;8.75;7.15;;;;;;;4.75;67.15;94721.31;6246515;23;20016;-79
2021/01/23 14:12:50;;;;;;;20.23;13.68;;;;;;;4.67;67.92;94724.03;6248634;23;20027;-80
2021/01/23 14:15:20;;;;;;;9.55;8.52;;;;;;;4.63;67.92;94722.81;6246862;23;20020;-79
2021/01/23 14:17:48;;;;;;;9.57;7.75;;;;;;;4.60;67.74;94721.44;6247232;23;20020;-80
2021/01/23 14:20:15;;;;;;;9.27;7.60;;;;;;;4.60;68.05;94720.63;6246360;23;20073;-79
2021/01/23 14:22:41;;;;;;;8.63;7.22;;;;;;;4.57;68.72;94714.06;6248340;23;20020;-80
2021/01/23 14:25:08;;;;;;;8.30;7.15;;;;;;;4.53;68.02;94712.84;6246387;23;20024;-79
2021/01/23 14:27:36;;;;;;;9.23;7.72;;;;;;;4.52;68.18;94712.03;6246394;23;20020;-80
2021/01/23 14:30:04;;;;;;;9.15;7.45;;;;;;;4.49;68.34;94703.91;6243322;22;20102;-81
2021/01/23 14:32:31;;;;;;;9.43;7.45;;;;;;;4.47;69.06;94698.91;6246850;23;20024;-80
2021/01/23 14:34:59;;;;;;;12.18;8.60;;;;;;;4.46;68.26;94697.34;6246774;23;20059;-80
2021/01/23 14:37:26;;;;;;;9.55;6.97;;;;;;;4.39;68.53;94693.09;6246605;23;20469;-81
2021/01/23 14:39:53;;;;;;;9.30;7.68;;;;;;;4.37;68.72;94701.03;6246034;23;20024;-81
2021/01/23 14:42:20;;;;;;;8.98;8.07;;;;;;;4.38;68.83;94705.22;6246635;23;20024;-81
2021/01/23 14:44:48;;;;;;;9.35;7.65;;;;;;;4.38;68.57;94694.91;6245487;23;20020;-81
2021/01/23 14:47:14;;;;;;;9.05;7.55;;;;;;;4.34;68.90;94688.50;6244938;23;20020;-81
2021/01/23 14:49:41;;;;;;;9.32;7.25;;;;;;;4.30;69.00;94687.28;6244709;23;20020;-81
2021/01/23 14:52:08;;;;;;;7.80;7.00;;;;;;;4.24;68.83;94688.88;6245484;23;20027;-81
2021/01/23 14:54:34;;;;;;;8.10;7.00;;;;;;;4.22;69.21;94687.44;6246924;23;20420;-81
2021/01/23 14:57:01;;;;;;;8.27;7.32;;;;;;;4.19;68.88;94675.72;6246679;23;20020;-81
2021/01/23 14:59:27;;;;;;;10.43;8.32;;;;;;;4.15;68.89;94678.88;6246681;23;20051;-81
2021/01/23 15:01:55;;;;;;;16.23;10.65;;;;;;;4.09;68.96;94670.91;6246184;23;20646;-80
2021/01/23 15:04:21;;;;;;;15.77;10.35;;;;;;;4.08;68.90;94674.44;6246660;23;20020;-80
2021/01/23 15:06:50;;;;;;;12.43;9.63;;;;;;;4.08;69.08;94669.28;6246471;23;20030;-81
2021/01/23 15:09:17;;;;;;;15.00;10.82;;;;;;;4.09;69.00;94670.09;6246228;23;20052;-80
2021/01/23 15:11:43;;;;;;;12.43;9.13;;;;;;;4.09;69.21;94660.59;6246253;23;20047;-80
2021/01/23 15:14:10;;;;;;;10.80;8.43;;;;;;;4.08;68.81;94664.13;6246454;23;20352;-81
2021/01/23 15:16:37;;;;;;;10.48;8.13;;;;;;;4.01;69.32;94652.97;6246590;23;20016;-80
2021/01/23 15:19:21;;;;;;;8.43;7.50;;;;;;;3.98;68.92;94645.63;6246220;23;20055;-81
2021/01/23 15:21:47;;;;;;;9.25;7.20;;;;;;;3.96;69.20;94639.03;6246462;23;20024;-80
2021/01/23 15:24:14;;;;;;;10.77;7.28;;;;;;;3.91;69.29;94637.03;6246105;23;20020;-80
2021/01/23 15:26:40;;;;;;;7.65;6.28;;;;;;;3.87;68.87;94639.22;6246403;23;20027;-80
2021/01/23 15:29:07;;;;;;;9.40;7.32;;;;;;;3.83;68.68;94626.88;6246520;23;20487;-80
2021/01/23 15:31:33;;;;;;;8.45;7.13;;;;;;;3.76;69.36;94628.59;6246195;23;20103;-81
2021/01/23 15:34:00;;;;;;;8.85;6.90;;;;;;;3.74;69.21;94630.56;6246165;23;20074;-80
2021/01/23 15:36:27;;;;;;;7.80;6.80;;;;;;;3.70;68.99;94630.16;6246598;23;20093;-80
2021/01/23 15:38:54;;;;;;;9.95;7.72;;;;;;;3.68;68.97;94625.19;6245497;23;20016;-81
2021/01/23 15:41:20;;;;;;;10.85;7.57;;;;;;;3.66;69.09;94623.78;6245213;23;20020;-79
2021/01/23 15:43:47;;;;;;;11.15;8.05;;;;;;;3.67;69.42;94630.50;6246318;23;20464;-81
2021/01/23 15:46:14;;;;;;;8.55;7.15;;;;;;;3.67;69.09;94631.34;6245903;23;20024;-80
2021/01/23 15:48:40;;;;;;;9.48;7.85;;;;;;;3.66;69.46;94634.09;6245276;23;20027;-80
2021/01/23 15:51:07;;;;;;;10.07;8.20;;;;;;;3.65;69.50;94633.31;6245584;23;20070;-80